Susank, Kansas
Current Conditions -  °F | °C
As of 5:15 PM on Wednesday 22 Oct 2014 (Local Time) from KGBD Reporting Station
Broken Clouds Broken Clouds  
Wind Chill: 64°   Ceiling: 11000
Heat Index: 64°   Visibility: 10mi
Dew Point: 55°   Wind: 12mph
Humidity: 73%   Direction: 190°S
Pressure: 30.02"   Gusts: NA
Location:  38.6086°N, 98.8666°W
Report Text: KGBD 222215Z AUTO 19010KT 10SM SCT065 BKN110 18/13 A3002 RMK AO1
Loading
Personal Weather Stations






























Interactive Weather Map
Tropical Storm Tracking
New forecast layout! Learn more

10-Day Weather Forecast

Advertisements
Track Severe Weather on mobile